createdAt,value
2018-10-03T00:01:14.135Z,1013.32
2018-10-03T00:02:13.919Z,1013.30
2018-10-03T00:04:08.073Z,1013.35
2018-10-03T00:05:07.286Z,1013.39
2018-10-03T00:07:00.653Z,1013.42
2018-10-03T00:08:00.621Z,1013.43
2018-10-03T00:09:54.021Z,1013.44
2018-10-03T00:10:53.988Z,1013.41
2018-10-03T00:12:47.921Z,1013.41
2018-10-03T00:13:46.968Z,1013.38
2018-10-03T00:15:40.032Z,1013.41
2018-10-03T00:16:39.837Z,1013.42
2018-10-03T00:18:32.851Z,1013.51
2018-10-03T00:19:32.807Z,1013.49
2018-10-03T00:21:25.956Z,1013.54
2018-10-03T00:22:25.671Z,1013.54
2018-10-03T00:24:19.060Z,1013.60
2018-10-03T00:25:19.027Z,1013.58
2018-10-03T00:27:12.626Z,1013.66
2018-10-03T00:28:12.398Z,1013.66
2018-10-03T00:30:06.350Z,1013.61
2018-10-03T00:31:06.325Z,1013.63
2018-10-03T00:32:59.700Z,1013.60
2018-10-03T00:33:59.722Z,1013.60
2018-10-03T00:35:53.074Z,1013.56
2018-10-03T00:36:53.015Z,1013.65
2018-10-03T00:38:46.421Z,1013.72
2018-10-03T00:39:46.394Z,1013.73
2018-10-03T00:41:39.498Z,1013.73
2018-10-03T00:42:39.259Z,1013.73
2018-10-03T00:44:34.170Z,1013.69
2018-10-03T00:45:33.167Z,1013.71
2018-10-03T00:47:26.057Z,1013.77
2018-10-03T00:48:26.041Z,1013.79
2018-10-03T00:50:19.492Z,1013.73
2018-10-03T00:51:19.009Z,1013.73
2018-10-03T00:53:12.403Z,1013.79
2018-10-03T00:54:12.365Z,1013.76
2018-10-03T00:56:05.839Z,1013.78
2018-10-03T00:57:05.941Z,1013.77
2018-10-03T00:58:58.821Z,1013.79
2018-10-03T00:59:58.614Z,1013.76
2018-10-03T01:01:53.968Z,1013.75
2018-10-03T01:02:52.318Z,1013.74
2018-10-03T01:04:46.901Z,1013.72
2018-10-03T01:05:45.607Z,1013.72
2018-10-03T01:07:39.042Z,1013.75
2018-10-03T01:08:38.952Z,1013.72
2018-10-03T01:10:32.337Z,1013.73
2018-10-03T01:11:32.041Z,1013.75
2018-10-03T01:13:26.002Z,1013.71
2018-10-03T01:14:25.401Z,1013.77
2018-10-03T01:16:18.859Z,1013.78
2018-10-03T01:17:18.263Z,1013.80
2018-10-03T01:19:11.922Z,1013.80
2018-10-03T01:20:11.640Z,1013.81
2018-10-03T01:22:05.009Z,1013.86
2018-10-03T01:23:04.983Z,1013.89
2018-10-03T01:24:58.458Z,1013.98
2018-10-03T01:25:58.619Z,1014.00
2018-10-03T01:27:51.801Z,1013.93
2018-10-03T01:28:51.789Z,1013.99
2018-10-03T01:30:45.352Z,1013.92
2018-10-03T01:31:45.133Z,1013.98
2018-10-03T01:33:38.923Z,1013.99
2018-10-03T01:34:38.890Z,1014.02
2018-10-03T01:36:31.848Z,1013.99
2018-10-03T01:37:31.748Z,1013.96
2018-10-03T01:39:24.871Z,1014.00
2018-10-03T01:40:24.832Z,1013.98
2018-10-03T01:42:18.297Z,1014.05
2018-10-03T01:43:18.044Z,1014.01
2018-10-03T01:45:11.616Z,1013.98
2018-10-03T01:46:11.402Z,1013.92
2018-10-03T01:48:04.463Z,1013.98
2018-10-03T01:49:04.259Z,1013.98
2018-10-03T01:50:57.880Z,1014.00
2018-10-03T01:51:57.630Z,1013.89
2018-10-03T01:53:51.234Z,1013.90
2018-10-03T01:54:50.976Z,1013.92
2018-10-03T01:56:44.056Z,1013.97
2018-10-03T01:57:43.866Z,1013.96
2018-10-03T01:59:37.447Z,1013.96
2018-10-03T02:00:37.204Z,1013.98
2018-10-03T02:02:30.114Z,1013.98
2018-10-03T02:03:30.068Z,1014.00
2018-10-03T02:05:23.759Z,1014.04
2018-10-03T02:06:23.430Z,1014.06
2018-10-03T02:08:17.106Z,1014.07
2018-10-03T02:09:16.857Z,1014.11
2018-10-03T02:11:11.438Z,1014.10
2018-10-03T02:12:11.150Z,1014.10
2018-10-03T02:14:04.844Z,1014.08
2018-10-03T02:15:04.521Z,1014.05
2018-10-03T02:16:57.915Z,1014.07
2018-10-03T02:17:57.898Z,1014.07
2018-10-03T02:19:51.521Z,1014.19
2018-10-03T02:20:51.235Z,1014.16
2018-10-03T02:22:44.691Z,1014.19
2018-10-03T02:23:44.608Z,1014.22
2018-10-03T02:25:37.629Z,1014.24
2018-10-03T02:26:37.467Z,1014.25
2018-10-03T02:28:31.107Z,1014.24
2018-10-03T02:29:30.821Z,1014.17
2018-10-03T02:31:24.255Z,1014.22
2018-10-03T02:32:24.231Z,1014.17
2018-10-03T02:34:17.747Z,1014.12
2018-10-03T02:35:17.584Z,1014.19
2018-10-03T02:37:11.147Z,1014.18
2018-10-03T02:38:10.941Z,1014.17
2018-10-03T02:40:04.516Z,1014.17
2018-10-03T02:41:04.325Z,1014.17
2018-10-03T02:42:57.928Z,1014.20
2018-10-03T02:43:57.672Z,1014.20
2018-10-03T02:45:51.273Z,1014.21
2018-10-03T02:46:51.035Z,1014.24
2018-10-03T02:48:46.616Z,1014.26
2018-10-03T02:49:44.393Z,1014.29
2018-10-03T02:51:37.280Z,1014.32
2018-10-03T02:52:37.258Z,1014.34
2018-10-03T02:54:30.676Z,1014.28
2018-10-03T02:55:30.641Z,1014.30
2018-10-03T02:57:24.363Z,1014.30
2018-10-03T02:58:23.959Z,1014.40
2018-10-03T03:00:17.341Z,1014.33
2018-10-03T03:01:17.341Z,1014.37
2018-10-03T03:03:10.519Z,1014.42
2018-10-03T03:04:10.196Z,1014.39
2018-10-03T03:06:03.575Z,1014.38
2018-10-03T03:07:03.540Z,1014.38
2018-10-03T03:08:57.817Z,1014.45
2018-10-03T03:09:56.912Z,1014.48
2018-10-03T03:11:49.814Z,1014.56
2018-10-03T03:12:49.794Z,1014.56
2018-10-03T03:14:43.471Z,1014.68
2018-10-03T03:15:43.133Z,1014.69
2018-10-03T03:17:36.516Z,1014.67
2018-10-03T03:18:36.487Z,1014.70
2018-10-03T03:20:29.710Z,1014.73
2018-10-03T03:21:29.493Z,1014.79
2018-10-03T03:23:22.569Z,1014.77
2018-10-03T03:24:22.323Z,1014.77
2018-10-03T03:26:15.425Z,1014.79
2018-10-03T03:27:15.198Z,1014.84
2018-10-03T03:29:08.650Z,1014.87
2018-10-03T03:30:08.560Z,1014.85
2018-10-03T03:32:02.715Z,1014.90
2018-10-03T03:33:01.920Z,1014.88
2018-10-03T03:34:55.493Z,1014.88
2018-10-03T03:35:55.287Z,1014.90
2018-10-03T03:37:48.658Z,1014.90
2018-10-03T03:38:48.633Z,1014.95
2018-10-03T03:40:42.093Z,1014.93
2018-10-03T03:41:41.504Z,1014.91
2018-10-03T03:43:35.097Z,1014.94
2018-10-03T03:44:35.139Z,1014.93
2018-10-03T03:46:29.019Z,1014.92
2018-10-03T03:47:27.749Z,1014.93
2018-10-03T03:49:20.998Z,1014.95
2018-10-03T03:50:20.616Z,1015.03
2018-10-03T03:52:14.376Z,1014.99
2018-10-03T03:53:13.953Z,1014.99
2018-10-03T03:55:07.402Z,1014.98
2018-10-03T03:56:07.310Z,1014.98
2018-10-03T03:58:00.408Z,1014.97
2018-10-03T03:59:00.167Z,1014.98
2018-10-03T04:00:53.751Z,1014.99
2018-10-03T04:01:53.518Z,1015.03
2018-10-03T04:03:47.091Z,1014.97
2018-10-03T04:04:46.878Z,1014.99
2018-10-03T04:06:40.118Z,1015.03
2018-10-03T04:07:39.943Z,1015.03
2018-10-03T04:09:32.859Z,1015.06
2018-10-03T04:10:32.824Z,1015.07
2018-10-03T04:12:26.398Z,1015.04
2018-10-03T04:13:26.185Z,1015.03
2018-10-03T04:15:21.132Z,1015.10
2018-10-03T04:16:19.532Z,1015.10
2018-10-03T04:18:12.922Z,1015.10
2018-10-03T04:19:12.881Z,1015.14
2018-10-03T04:21:05.797Z,1015.11
2018-10-03T04:22:05.756Z,1015.16
2018-10-03T04:23:58.642Z,1015.25
2018-10-03T04:24:58.613Z,1015.31
2018-10-03T04:26:52.002Z,1015.35
2018-10-03T04:27:51.983Z,1015.39
2018-10-03T04:29:45.481Z,1015.40
2018-10-03T04:30:45.331Z,1015.38
2018-10-03T04:32:39.059Z,1015.42
2018-10-03T04:33:38.694Z,1015.40
2018-10-03T04:35:32.091Z,1015.42
2018-10-03T04:36:32.040Z,1015.46
2018-10-03T04:38:25.592Z,1015.48
2018-10-03T04:39:25.425Z,1015.47
2018-10-03T04:41:19.002Z,1015.49
2018-10-03T04:42:18.827Z,1015.50
2018-10-03T04:44:12.160Z,1015.50
2018-10-03T04:45:12.127Z,1015.48
2018-10-03T04:47:05.509Z,1015.47
2018-10-03T04:48:05.485Z,1015.41
2018-10-03T04:49:59.450Z,1015.44
2018-10-03T04:50:58.858Z,1015.46
2018-10-03T04:52:53.054Z,1015.56
2018-10-03T04:53:52.228Z,1015.53
2018-10-03T04:55:45.117Z,1015.62
2018-10-03T04:56:45.082Z,1015.63
2018-10-03T04:58:39.517Z,1015.62
2018-10-03T04:59:39.328Z,1015.60
2018-10-03T05:01:33.256Z,1015.55
2018-10-03T05:02:32.658Z,1015.55
2018-10-03T05:04:25.554Z,1015.56
2018-10-03T05:05:25.514Z,1015.58
2018-10-03T05:07:19.215Z,1015.56
2018-10-03T05:08:18.891Z,1015.63
2018-10-03T05:10:11.880Z,1015.71
2018-10-03T05:11:12.154Z,1015.71
2018-10-03T05:13:05.227Z,1015.73
2018-10-03T05:14:05.208Z,1015.77
2018-10-03T05:15:58.880Z,1015.78
2018-10-03T05:16:58.588Z,1015.80
2018-10-03T05:18:51.749Z,1015.83
2018-10-03T05:19:51.449Z,1015.83
2018-10-03T05:21:45.097Z,1015.88
2018-10-03T05:22:44.809Z,1015.87
2018-10-03T05:24:37.886Z,1015.92
2018-10-03T05:25:37.660Z,1015.92
2018-10-03T05:27:31.276Z,1015.97
2018-10-03T05:28:31.035Z,1016.02
2018-10-03T05:30:24.469Z,1016.13
2018-10-03T05:31:24.698Z,1016.17
2018-10-03T05:33:18.716Z,1016.22
2018-10-03T05:34:18.347Z,1016.24
2018-10-03T05:36:11.731Z,1016.31
2018-10-03T05:37:11.716Z,1016.30
2018-10-03T05:39:05.335Z,1016.36
2018-10-03T05:40:05.084Z,1016.33
2018-10-03T05:41:58.507Z,1016.31
2018-10-03T05:42:58.438Z,1016.32
2018-10-03T05:44:51.829Z,1016.32
2018-10-03T05:45:51.802Z,1016.27
2018-10-03T05:47:45.462Z,1016.36
2018-10-03T05:48:45.267Z,1016.39
2018-10-03T05:50:38.373Z,1016.42
2018-10-03T05:51:38.316Z,1016.44
2018-10-03T05:53:31.309Z,1016.47
2018-10-03T05:54:30.914Z,1016.49
2018-10-03T05:56:24.814Z,1016.55
2018-10-03T05:57:24.254Z,1016.59
2018-10-03T05:59:19.494Z,1016.57
2018-10-03T06:00:17.611Z,1016.65
2018-10-03T06:02:10.887Z,1016.66
2018-10-03T06:03:10.742Z,1016.64
2018-10-03T06:05:04.142Z,1016.71
2018-10-03T06:06:04.203Z,1016.69
2018-10-03T06:07:58.496Z,1016.75
2018-10-03T06:08:58.492Z,1016.73
2018-10-03T06:10:51.363Z,1016.78
2018-10-03T06:11:51.299Z,1016.76
2018-10-03T06:13:44.730Z,1016.78
2018-10-03T06:14:44.687Z,1016.80
2018-10-03T06:16:38.397Z,1016.83
2018-10-03T06:17:37.872Z,1016.85
2018-10-03T06:19:31.181Z,1016.84
2018-10-03T06:20:31.138Z,1016.83
2018-10-03T06:22:24.540Z,1016.78
2018-10-03T06:23:24.486Z,1016.82
2018-10-03T06:25:17.434Z,1016.79
2018-10-03T06:26:17.353Z,1016.83
2018-10-03T06:28:10.789Z,1016.82
2018-10-03T06:29:10.713Z,1016.86
2018-10-03T06:31:04.664Z,1016.91
2018-10-03T06:32:04.634Z,1016.92
2018-10-03T06:33:58.189Z,1016.96
2018-10-03T06:34:57.988Z,1016.96
2018-10-03T06:36:51.013Z,1016.96
2018-10-03T06:37:50.850Z,1017.01
2018-10-03T06:39:44.401Z,1017.03
2018-10-03T06:40:44.229Z,1017.06
2018-10-03T06:42:37.610Z,1017.10
2018-10-03T06:43:37.602Z,1017.12
2018-10-03T06:45:30.543Z,1017.19
2018-10-03T06:46:30.458Z,1017.20
2018-10-03T06:48:23.491Z,1017.25
2018-10-03T06:49:23.305Z,1017.27
2018-10-03T06:51:16.711Z,1017.29
2018-10-03T06:52:16.676Z,1017.31
2018-10-03T06:54:10.925Z,1017.35
2018-10-03T06:55:10.902Z,1017.39
2018-10-03T06:57:03.781Z,1017.37
2018-10-03T06:58:03.753Z,1017.40
2018-10-03T06:59:56.647Z,1017.45
2018-10-03T07:00:56.621Z,1017.42
2018-10-03T07:02:50.043Z,1017.40
2018-10-03T07:03:49.990Z,1017.45
2018-10-03T07:05:43.058Z,1017.42
2018-10-03T07:06:42.856Z,1017.45
2018-10-03T07:08:36.234Z,1017.48
2018-10-03T07:09:36.206Z,1017.48
2018-10-03T07:11:29.594Z,1017.49
2018-10-03T07:12:29.571Z,1017.50
2018-10-03T07:14:22.954Z,1017.58
2018-10-03T07:15:22.927Z,1017.66
2018-10-03T07:17:16.513Z,1017.72
2018-10-03T07:18:15.809Z,1017.77
2018-10-03T07:20:09.398Z,1017.83
2018-10-03T07:21:09.176Z,1017.79
2018-10-03T07:23:02.058Z,1017.82
2018-10-03T07:24:02.041Z,1017.80
2018-10-03T07:25:55.676Z,1017.89
2018-10-03T07:26:55.404Z,1017.92
2018-10-03T07:28:48.309Z,1017.93
2018-10-03T07:29:48.272Z,1017.95
2018-10-03T07:31:41.833Z,1017.96
2018-10-03T07:32:41.715Z,1017.97
2018-10-03T07:34:36.089Z,1017.97
2018-10-03T07:35:35.074Z,1017.98
2018-10-03T07:37:28.596Z,1017.94
2018-10-03T07:38:28.441Z,1017.97
2018-10-03T07:40:21.830Z,1018.04
2018-10-03T07:41:21.788Z,1018.02
2018-10-03T07:43:15.187Z,1018.17
2018-10-03T07:44:15.169Z,1018.21
2018-10-03T07:46:11.476Z,1018.26
2018-10-03T07:48:47.771Z,1018.29
2018-10-03T07:49:35.463Z,1018.28
2018-10-03T07:51:28.655Z,1018.33
2018-10-03T07:52:29.618Z,1018.34
2018-10-03T07:54:25.492Z,1018.33
2018-10-03T07:55:22.059Z,1018.37
2018-10-03T07:57:16.313Z,1018.38
2018-10-03T07:58:15.784Z,1018.40
2018-10-03T08:00:15.385Z,1018.38
2018-10-03T08:01:11.261Z,1018.44
2018-10-03T08:03:08.029Z,1018.44
2018-10-03T08:04:03.791Z,1018.45
2018-10-03T08:05:57.830Z,1018.50
2018-10-03T08:06:57.832Z,1018.53
2018-10-03T08:08:51.211Z,1018.59
2018-10-03T08:11:05.688Z,1018.64
2018-10-03T08:12:05.494Z,1018.62
2018-10-03T08:13:59.541Z,1018.69
2018-10-03T08:14:59.155Z,1018.67
2018-10-03T08:17:01.707Z,1018.72
2018-10-03T08:17:53.959Z,1018.74
2018-10-03T08:19:46.893Z,1018.71
2018-10-03T08:20:46.793Z,1018.72
2018-10-03T08:22:42.820Z,1018.76
2018-10-03T08:23:39.046Z,1018.77
2018-10-03T08:25:37.869Z,1018.80
2018-10-03T08:26:32.204Z,1018.78
2018-10-03T08:28:25.902Z,1018.85
2018-10-03T08:29:25.625Z,1018.89
2018-10-03T08:31:19.294Z,1018.86
2018-10-03T08:32:19.235Z,1018.86
2018-10-03T08:34:12.048Z,1018.92
2018-10-03T08:35:11.823Z,1018.89
2018-10-03T08:37:06.531Z,1018.94
2018-10-03T08:38:05.170Z,1018.95
2018-10-03T08:39:58.103Z,1018.91
2018-10-03T08:40:58.277Z,1018.93
2018-10-03T08:42:50.957Z,1018.95
2018-10-03T08:43:50.935Z,1018.98
2018-10-03T08:45:44.454Z,1018.96
2018-10-03T08:46:44.717Z,1019.03
2018-10-03T08:48:39.677Z,1019.07
2018-10-03T08:49:37.765Z,1019.03
2018-10-03T08:51:43.487Z,1019.09
2018-10-03T08:54:10.509Z,1019.15
2018-10-03T08:55:09.030Z,1019.10
2018-10-03T08:57:02.122Z,1019.08
2018-10-03T08:58:01.960Z,1019.11
2018-10-03T08:59:54.799Z,1019.11
2018-10-03T09:00:54.818Z,1019.12
2018-10-03T09:02:47.839Z,1019.14
2018-10-03T09:03:47.658Z,1019.19
2018-10-03T09:05:41.031Z,1019.22
2018-10-03T09:06:41.023Z,1019.24
2018-10-03T09:08:35.603Z,1019.23
2018-10-03T09:09:33.916Z,1019.22
2018-10-03T09:11:27.603Z,1019.21
2018-10-03T09:12:27.254Z,1019.23
2018-10-03T09:14:20.179Z,1019.25
2018-10-03T09:15:20.154Z,1019.25
2018-10-03T09:17:13.339Z,1019.25
2018-10-03T09:18:13.033Z,1019.28
2018-10-03T09:20:06.696Z,1019.33
2018-10-03T09:21:06.415Z,1019.34
2018-10-03T09:22:59.780Z,1019.38
2018-10-03T09:23:59.758Z,1019.40
2018-10-03T09:25:53.383Z,1019.43
2018-10-03T09:26:53.204Z,1019.46
2018-10-03T09:28:46.814Z,1019.42
2018-10-03T09:29:46.512Z,1019.46
2018-10-03T09:31:39.881Z,1019.45
2018-10-03T09:32:39.861Z,1019.48
2018-10-03T09:34:33.289Z,1019.55
2018-10-03T09:35:33.285Z,1019.54
2018-10-03T09:37:26.877Z,1019.59
2018-10-03T09:38:26.626Z,1019.56
2018-10-03T09:40:20.579Z,1019.60
2018-10-03T09:41:19.984Z,1019.57
2018-10-03T09:43:13.488Z,1019.56
2018-10-03T09:44:13.477Z,1019.60
2018-10-03T09:46:06.919Z,1019.58
2018-10-03T09:47:06.753Z,1019.59
2018-10-03T09:49:00.454Z,1019.60
2018-10-03T09:50:00.123Z,1019.63
2018-10-03T09:51:53.226Z,1019.62
2018-10-03T09:52:53.029Z,1019.70
2018-10-03T09:54:46.602Z,1019.63
2018-10-03T09:55:46.369Z,1019.68
2018-10-03T09:57:43.786Z,1019.66
2018-10-03T09:58:44.084Z,1019.69
2018-10-03T10:00:37.840Z,1019.70
2018-10-03T10:01:35.135Z,1019.71
2018-10-03T10:03:28.499Z,1019.72
2018-10-03T10:04:28.366Z,1019.72
2018-10-03T10:06:21.851Z,1019.78
2018-10-03T10:07:21.602Z,1019.81
2018-10-03T10:09:14.723Z,1019.77
2018-10-03T10:10:14.550Z,1019.84
2018-10-03T10:12:08.701Z,1019.82
2018-10-03T10:13:08.044Z,1019.81
2018-10-03T10:15:00.770Z,1019.76
2018-10-03T10:16:00.724Z,1019.73
2018-10-03T10:17:54.224Z,1019.75
2018-10-03T10:18:54.110Z,1019.72
2018-10-03T10:20:47.028Z,1019.69
2018-10-03T10:21:46.985Z,1019.67
2018-10-03T10:23:40.039Z,1019.70
2018-10-03T10:24:39.852Z,1019.72
2018-10-03T10:26:33.234Z,1019.73
2018-10-03T10:27:33.215Z,1019.78
2018-10-03T10:29:26.362Z,1019.77
2018-10-03T10:30:26.125Z,1019.80
2018-10-03T10:32:19.790Z,1019.83
2018-10-03T10:33:19.743Z,1019.80
2018-10-03T10:35:13.420Z,1019.84
2018-10-03T10:36:13.100Z,1019.86
2018-10-03T10:38:06.777Z,1019.85
2018-10-03T10:39:06.480Z,1019.88
2018-10-03T10:40:59.591Z,1019.91
2018-10-03T10:41:59.423Z,1019.95
2018-10-03T10:43:53.092Z,1019.93
2018-10-03T10:44:55.316Z,1020.03
2018-10-03T10:46:45.661Z,1019.98
2018-10-03T10:47:45.624Z,1020.01
2018-10-03T10:49:39.183Z,1020.02
2018-10-03T10:50:39.000Z,1020.08
2018-10-03T10:52:32.784Z,1020.09
2018-10-03T10:53:32.362Z,1020.09
2018-10-03T10:55:25.285Z,1020.11
2018-10-03T10:56:25.258Z,1020.13
2018-10-03T10:58:18.458Z,1020.11
2018-10-03T10:59:18.437Z,1020.15
2018-10-03T11:01:13.449Z,1020.12
2018-10-03T11:02:14.355Z,1020.17
2018-10-03T11:04:04.719Z,1020.16
2018-10-03T11:05:04.765Z,1020.13
2018-10-03T11:06:58.771Z,1020.14
2018-10-03T11:07:58.290Z,1020.10
2018-10-03T11:10:04.527Z,1020.16
2018-10-03T11:11:04.438Z,1020.06
2018-10-03T11:13:50.955Z,1020.00
2018-10-03T11:14:50.482Z,1020.01
2018-10-03T11:16:43.114Z,1020.03
2018-10-03T11:17:42.784Z,1020.04
2018-10-03T11:19:39.375Z,1020.04
2018-10-03T11:20:36.307Z,1020.02
2018-10-03T11:22:31.108Z,1020.06
2018-10-03T11:23:29.137Z,1020.03
2018-10-03T11:25:22.109Z,1020.08
2018-10-03T11:26:21.964Z,1020.08
2018-10-03T11:28:14.821Z,1020.03
2018-10-03T11:29:14.838Z,1019.96
2018-10-03T11:31:08.319Z,1020.00
2018-10-03T11:32:08.242Z,1020.02
2018-10-03T11:34:01.572Z,1020.06
2018-10-03T11:35:01.586Z,1020.10
2018-10-03T11:36:54.515Z,1020.06
2018-10-03T11:37:54.432Z,1020.11
2018-10-03T11:39:47.344Z,1020.11
2018-10-03T11:40:47.310Z,1020.08
2018-10-03T11:42:40.780Z,1020.14
2018-10-03T11:43:40.221Z,1020.15
2018-10-03T11:45:33.506Z,1020.21
2018-10-03T11:46:33.370Z,1020.14
2018-10-03T11:48:26.781Z,1020.15
2018-10-03T11:49:26.746Z,1020.18
2018-10-03T11:51:19.645Z,1020.17
2018-10-03T11:52:19.622Z,1020.12
2018-10-03T11:54:12.814Z,1020.13
2018-10-03T11:55:12.547Z,1020.11
2018-10-03T11:57:06.825Z,1020.11
2018-10-03T11:58:06.676Z,1020.13
2018-10-03T11:59:59.639Z,1020.17
2018-10-03T12:00:59.516Z,1020.16
2018-10-03T12:02:54.219Z,1020.16
2018-10-03T12:03:54.000Z,1020.19
2018-10-03T12:05:47.420Z,1020.21
2018-10-03T12:06:48.029Z,1020.19
2018-10-03T12:08:41.415Z,1020.12
2018-10-03T12:09:40.961Z,1020.10
2018-10-03T12:11:34.737Z,1020.12
2018-10-03T12:12:34.689Z,1020.09
2018-10-03T12:14:30.686Z,1020.06
2018-10-03T12:15:28.611Z,1020.03
2018-10-03T12:17:21.567Z,1020.05
2018-10-03T12:18:21.749Z,1020.05
2018-10-03T12:20:14.994Z,1020.07
2018-10-03T12:21:14.862Z,1020.08
2018-10-03T12:23:08.799Z,1020.05
2018-10-03T12:24:07.888Z,1020.06
2018-10-03T12:26:01.596Z,1020.12
2018-10-03T12:27:01.471Z,1020.09
2018-10-03T12:28:54.830Z,1020.13
2018-10-03T12:29:55.173Z,1020.10
2018-10-03T12:32:09.034Z,1020.06
2018-10-03T12:32:47.953Z,1020.11
2018-10-03T12:34:41.469Z,1020.06
2018-10-03T12:35:41.337Z,1020.05
2018-10-03T12:37:35.033Z,1020.07
2018-10-03T12:38:35.051Z,1020.05
2018-10-03T12:40:28.468Z,1020.09
2018-10-03T12:41:28.217Z,1020.05
2018-10-03T12:43:21.933Z,1020.02
2018-10-03T12:44:21.433Z,1019.98
2018-10-03T12:46:14.912Z,1020.00
2018-10-03T12:47:14.664Z,1019.93
2018-10-03T12:49:08.029Z,1019.92
2018-10-03T12:50:07.983Z,1019.95
2018-10-03T12:52:01.692Z,1019.89
2018-10-03T12:53:01.357Z,1019.91
2018-10-03T12:54:54.967Z,1019.91
2018-10-03T12:55:54.720Z,1019.89
2018-10-03T12:57:48.193Z,1019.87
2018-10-03T12:58:48.082Z,1019.91
2018-10-03T13:00:42.513Z,1019.87
2018-10-03T13:01:43.107Z,1019.89
2018-10-03T13:03:36.136Z,1019.90
2018-10-03T13:04:35.901Z,1019.93
2018-10-03T13:06:29.571Z,1019.94
2018-10-03T13:07:29.238Z,1019.89
2018-10-03T13:09:22.847Z,1019.92
2018-10-03T13:10:22.615Z,1019.92
2018-10-03T13:12:16.311Z,1019.94
2018-10-03T13:13:16.031Z,1019.91
2018-10-03T13:15:09.394Z,1019.89
2018-10-03T13:16:09.372Z,1019.97
2018-10-03T13:18:02.505Z,1019.99
2018-10-03T13:19:02.819Z,1019.97
2018-10-03T13:20:55.793Z,1020.01
2018-10-03T13:21:55.611Z,1019.95
2018-10-03T13:23:48.546Z,1020.04
2018-10-03T13:24:48.632Z,1020.01
2018-10-03T13:26:41.897Z,1020.07
2018-10-03T13:27:41.850Z,1020.04
2018-10-03T13:29:34.966Z,1020.07
2018-10-03T13:30:34.793Z,1020.03
2018-10-03T13:32:27.833Z,1020.00
2018-10-03T13:33:27.614Z,1020.01
2018-10-03T13:35:20.991Z,1019.95
2018-10-03T13:36:20.985Z,1019.97
2018-10-03T13:38:13.942Z,1019.90
2018-10-03T13:39:13.868Z,1019.93
2018-10-03T13:41:08.154Z,1019.91
2018-10-03T13:42:07.836Z,1019.88
2018-10-03T13:44:01.423Z,1019.99
2018-10-03T13:45:01.781Z,1019.99
2018-10-03T13:46:55.664Z,1019.96
2018-10-03T13:47:54.767Z,1019.95
2018-10-03T13:49:47.681Z,1019.94
2018-10-03T13:50:47.436Z,1019.96
2018-10-03T13:52:40.592Z,1019.90
2018-10-03T13:53:40.327Z,1019.97
2018-10-03T13:55:33.765Z,1019.95
2018-10-03T13:56:33.679Z,1019.98
2018-10-03T13:58:28.301Z,1019.88
2018-10-03T13:59:27.633Z,1019.94
2018-10-03T14:01:20.531Z,1019.94
2018-10-03T14:02:20.513Z,1019.98
2018-10-03T14:04:13.372Z,1020.00
2018-10-03T14:05:13.370Z,1019.97
2018-10-03T14:07:07.004Z,1019.92
2018-10-03T14:08:06.728Z,1019.90
2018-10-03T14:10:00.355Z,1019.92
2018-10-03T14:11:00.106Z,1019.92
2018-10-03T14:12:53.555Z,1019.99
2018-10-03T14:13:54.047Z,1020.03
2018-10-03T14:15:46.479Z,1020.01
2018-10-03T14:16:46.395Z,1019.98
2018-10-03T14:18:40.154Z,1020.00
2018-10-03T14:19:39.758Z,1020.04
2018-10-03T14:21:33.305Z,1020.06
2018-10-03T14:22:33.138Z,1020.07
2018-10-03T14:24:26.770Z,1020.05
2018-10-03T14:25:26.494Z,1020.09
2018-10-03T14:27:19.600Z,1020.10
2018-10-03T14:28:19.365Z,1020.08
2018-10-03T14:30:14.040Z,1020.10
2018-10-03T14:31:12.720Z,1020.13
2018-10-03T14:33:06.315Z,1020.12
2018-10-03T14:34:06.109Z,1020.10
2018-10-03T14:35:59.014Z,1020.11
2018-10-03T14:36:58.995Z,1020.05
2018-10-03T14:38:56.290Z,1020.06
2018-10-03T14:39:53.412Z,1020.07
2018-10-03T14:41:46.879Z,1020.03
2018-10-03T14:42:46.730Z,1020.01
2018-10-03T14:44:43.100Z,1019.95
2018-10-03T14:46:56.421Z,1019.90
2018-10-03T14:47:56.132Z,1019.92
2018-10-03T14:49:49.263Z,1019.96
2018-10-03T14:50:48.921Z,1019.93
2018-10-03T14:52:42.516Z,1019.94
2018-10-03T14:53:42.252Z,1019.99
2018-10-03T14:55:35.377Z,1020.00
2018-10-03T14:56:35.124Z,1020.00
2018-10-03T14:58:28.665Z,1019.99
2018-10-03T14:59:29.051Z,1019.98
2018-10-03T15:01:24.413Z,1019.99
2018-10-03T15:02:24.357Z,1020.00
2018-10-03T15:04:17.394Z,1019.97
2018-10-03T15:05:17.237Z,1019.97
2018-10-03T15:07:10.825Z,1020.04
2018-10-03T15:08:10.587Z,1020.06
2018-10-03T15:10:03.999Z,1020.03
2018-10-03T15:11:03.968Z,1020.05
2018-10-03T15:12:57.802Z,1020.08
2018-10-03T15:13:57.443Z,1020.10
2018-10-03T15:15:50.843Z,1020.08
2018-10-03T15:16:50.801Z,1020.10
2018-10-03T15:18:44.380Z,1020.14
2018-10-03T15:19:44.239Z,1020.10
2018-10-03T15:21:37.561Z,1020.10
2018-10-03T15:22:37.376Z,1020.09
2018-10-03T15:24:30.444Z,1020.07
2018-10-03T15:25:30.235Z,1020.12
2018-10-03T15:27:23.691Z,1020.13
2018-10-03T15:28:23.107Z,1020.17
2018-10-03T15:30:16.268Z,1020.16
2018-10-03T15:31:15.990Z,1020.13
2018-10-03T15:33:09.073Z,1020.18
2018-10-03T15:34:08.871Z,1020.19
2018-10-03T15:36:02.244Z,1020.19
2018-10-03T15:37:02.209Z,1020.20
2018-10-03T15:38:55.808Z,1020.22
2018-10-03T15:39:55.608Z,1020.20
2018-10-03T15:41:48.977Z,1020.17
2018-10-03T15:42:48.938Z,1020.18
2018-10-03T15:44:42.347Z,1020.18
2018-10-03T15:45:42.302Z,1020.14
2018-10-03T15:47:35.221Z,1020.17
2018-10-03T15:48:35.204Z,1020.18
2018-10-03T15:50:29.734Z,1020.17
2018-10-03T15:51:28.544Z,1020.17
2018-10-03T15:53:22.484Z,1020.18
2018-10-03T15:54:21.939Z,1020.19
2018-10-03T15:56:15.507Z,1020.19
2018-10-03T15:57:17.960Z,1020.22
2018-10-03T15:59:08.769Z,1020.18
2018-10-03T16:00:08.679Z,1020.20
2018-10-03T16:02:03.061Z,1020.18
2018-10-03T16:03:02.035Z,1020.16
2018-10-03T16:04:55.416Z,1020.15
2018-10-03T16:05:55.378Z,1020.14
2018-10-03T16:07:48.666Z,1020.20
2018-10-03T16:08:48.561Z,1020.20
2018-10-03T16:10:41.544Z,1020.22
2018-10-03T16:11:41.441Z,1020.23
2018-10-03T16:13:34.339Z,1020.20
2018-10-03T16:14:34.282Z,1020.21
2018-10-03T16:16:27.201Z,1020.25
2018-10-03T16:17:27.156Z,1020.23
2018-10-03T16:19:20.546Z,1020.27
2018-10-03T16:20:20.518Z,1020.29
2018-10-03T16:22:13.906Z,1020.32
2018-10-03T16:23:13.877Z,1020.33
2018-10-03T16:25:07.264Z,1020.35
2018-10-03T16:26:07.308Z,1020.36
2018-10-03T16:28:00.640Z,1020.37
2018-10-03T16:29:00.604Z,1020.40
2018-10-03T16:30:54.020Z,1020.43
2018-10-03T16:31:53.971Z,1020.41
2018-10-03T16:33:47.937Z,1020.44
2018-10-03T16:34:47.348Z,1020.45
2018-10-03T16:36:40.765Z,1020.46
2018-10-03T16:37:40.696Z,1020.46
2018-10-03T16:39:34.259Z,1020.43
2018-10-03T16:40:34.231Z,1020.42
2018-10-03T16:42:27.625Z,1020.44
2018-10-03T16:43:27.589Z,1020.44
2018-10-03T16:45:21.012Z,1020.44
2018-10-03T16:46:23.560Z,1020.44
2018-10-03T16:48:14.435Z,1020.47
2018-10-03T16:49:13.888Z,1020.47
2018-10-03T16:51:07.244Z,1020.49
2018-10-03T16:52:07.224Z,1020.49
2018-10-03T16:54:00.624Z,1020.54
2018-10-03T16:55:00.588Z,1020.52
2018-10-03T16:56:53.483Z,1020.55
2018-10-03T16:57:53.454Z,1020.55
2018-10-03T16:59:47.851Z,1020.54
2018-10-03T17:00:47.829Z,1020.58
2018-10-03T17:02:40.717Z,1020.59
2018-10-03T17:03:40.695Z,1020.57
2018-10-03T17:05:34.082Z,1020.63
2018-10-03T17:06:34.057Z,1020.59
2018-10-03T17:08:27.651Z,1020.58
2018-10-03T17:09:27.451Z,1020.63
2018-10-03T17:11:21.007Z,1020.62
2018-10-03T17:12:20.837Z,1020.60
2018-10-03T17:14:14.238Z,1020.58
2018-10-03T17:15:14.212Z,1020.62
2018-10-03T17:17:07.632Z,1020.59
2018-10-03T17:18:07.593Z,1020.61
2018-10-03T17:20:00.963Z,1020.61
2018-10-03T17:21:01.000Z,1020.59
2018-10-03T17:22:54.562Z,1020.62
2018-10-03T17:23:54.309Z,1020.61
2018-10-03T17:25:47.221Z,1020.63
2018-10-03T17:26:47.178Z,1020.65
2018-10-03T17:28:40.120Z,1020.62
2018-10-03T17:29:40.045Z,1020.68
2018-10-03T17:31:34.521Z,1020.68
2018-10-03T17:32:34.412Z,1020.71